Time;durP1;ratioP1;P1;durP2;ratioP2;P2;SDS_P1;SDS_P2;PMS_P1;PMS_P2;Temp;Humidity;BMP_temperature;BMP_pressure;BME280_temperature;BME280_humidity;BME280_pressure;Samples;Min_cycle;Max_cycle;Signal;HPM_P1;HPM_P2
2023/08/22 00:01:57;;;;;;;2.50;2.30;;;24.50;52.60;;;;;;5039423;28;20585;-70
2023/08/22 00:04:23;;;;;;;4.23;2.37;;;24.50;52.60;;;;;;5035813;28;20236;-71
2023/08/22 00:06:48;;;;;;;2.43;2.33;;;24.50;52.60;;;;;;5034565;28;20233;-70
2023/08/22 00:09:14;;;;;;;2.50;2.40;;;24.50;52.60;;;;;;5020519;28;21862;-70
2023/08/22 00:11:39;;;;;;;2.60;2.40;;;24.50;52.70;;;;;;5036921;28;20243;-70
2023/08/22 00:14:06;;;;;;;2.60;2.50;;;24.50;52.70;;;;;;5038248;28;20217;-70
2023/08/22 00:16:32;;;;;;;2.20;2.10;;;24.50;52.60;;;;;;5015182;28;20213;-70
2023/08/22 00:18:58;;;;;;;2.30;2.20;;;24.50;52.70;;;;;;5037766;28;20439;-70
2023/08/22 00:21:24;;;;;;;1.80;1.70;;;24.50;52.70;;;;;;5035171;28;20455;-70
2023/08/22 00:23:50;;;;;;;2.23;2.13;;;24.50;52.70;;;;;;5035898;28;20230;-69
2023/08/22 00:26:15;;;;;;;2.20;2.10;;;24.50;52.70;;;;;;5036406;28;20675;-68
2023/08/22 00:28:41;;;;;;;2.60;2.50;;;24.50;52.70;;;;;;5038155;28;20720;-69
2023/08/22 00:31:06;;;;;;;2.27;2.17;;;24.50;52.70;;;;;;5034597;28;20600;-69
2023/08/22 00:33:32;;;;;;;2.37;2.27;;;24.50;52.70;;;;;;5033808;28;20226;-69
2023/08/22 00:35:57;;;;;;;2.27;2.17;;;24.50;52.70;;;;;;5033584;28;20230;-70
2023/08/22 00:38:23;;;;;;;3.20;2.50;;;24.50;52.70;;;;;;5033725;28;20228;-69
2023/08/22 00:40:48;;;;;;;2.40;2.30;;;24.50;52.70;;;;;;5034084;28;20251;-69
2023/08/22 00:43:14;;;;;;;2.40;2.30;;;24.50;52.70;;;;;;5036108;28;20704;-69
2023/08/22 00:45:42;;;;;;;2.30;2.20;;;24.50;52.70;;;;;;5032607;28;20608;-69
2023/08/22 00:48:08;;;;;;;2.50;2.40;;;24.60;52.80;;;;;;5032812;28;20217;-71
2023/08/22 00:50:34;;;;;;;2.50;2.40;;;24.50;52.70;;;;;;5032725;28;20552;-69
2023/08/22 00:53:00;;;;;;;2.30;2.20;;;24.50;52.70;;;;;;5038109;28;20344;-69
2023/08/22 00:55:26;;;;;;;2.20;2.10;;;24.50;52.70;;;;;;5034803;28;20685;-69
2023/08/22 00:57:52;;;;;;;2.90;2.80;;;24.50;52.70;;;;;;5035036;28;20524;-70
2023/08/22 01:00:18;;;;;;;2.13;2.03;;;24.50;52.70;;;;;;5032434;28;20226;-70
2023/08/22 01:02:44;;;;;;;2.13;2.03;;;24.50;52.80;;;;;;5033869;28;20630;-68
2023/08/22 01:05:10;;;;;;;2.23;2.13;;;24.50;52.70;;;;;;5034330;28;20241;-70
2023/08/22 01:07:48;;;;;;;2.30;2.20;;;24.50;52.70;;;;;;5035304;28;20997;-70
2023/08/22 01:10:28;;;;;;;2.40;2.20;;;24.50;52.70;;;;;;5028724;28;20803;-71
2023/08/22 01:13:02;;;;;;;2.23;2.13;;;24.50;52.70;;;;;;5034371;28;20459;-70
2023/08/22 01:15:30;;;;;;;2.43;2.33;;;24.50;53.50;;;;;;5033113;28;20459;-71
2023/08/22 01:18:01;;;;;;;2.23;2.13;;;24.50;52.80;;;;;;5033872;28;20541;-70
2023/08/22 01:20:27;;;;;;;2.40;2.30;;;24.50;52.70;;;;;;5033658;28;20470;-71
2023/08/22 01:22:53;;;;;;;2.40;2.30;;;24.50;52.80;;;;;;5032572;28;21055;-70
2023/08/22 01:25:19;;;;;;;2.20;2.10;;;24.50;52.70;;;;;;5031530;28;20997;-70
2023/08/22 01:28:08;;;;;;;2.47;2.37;;;24.50;52.70;;;;;;5033898;28;20459;-71
2023/08/22 01:30:43;;;;;;;2.33;2.23;;;24.50;52.70;;;;;;5032364;28;20233;-71
2023/08/22 01:33:19;;;;;;;2.33;2.23;;;24.60;52.80;;;;;;5013021;28;20840;-70
2023/08/22 01:35:49;;;;;;;2.30;2.10;;;24.50;52.70;;;;;;5039059;28;20466;-70
2023/08/22 01:38:17;;;;;;;2.50;2.40;;;24.50;52.70;;;;;;5038501;28;20463;-70
2023/08/22 01:40:43;;;;;;;2.23;2.13;;;24.50;52.70;;;;;;5038269;28;20592;-70
2023/08/22 01:43:09;;;;;;;2.60;2.50;;;24.50;52.80;;;;;;5042545;28;20446;-70
2023/08/22 01:45:34;;;;;;;2.60;2.50;;;24.50;52.70;;;;;;5038930;28;20486;-70
2023/08/22 01:48:00;;;;;;;2.47;2.37;;;24.50;52.70;;;;;;5042014;28;20229;-70
2023/08/22 01:50:25;;;;;;;2.40;2.30;;;24.50;52.70;;;;;;5041627;28;20231;-70
2023/08/22 01:52:51;;;;;;;2.70;2.60;;;24.50;52.80;;;;;;5041697;28;20252;-70
2023/08/22 01:55:19;;;;;;;2.30;2.20;;;24.50;52.80;;;;;;5023468;28;20695;-71
2023/08/22 01:57:44;;;;;;;2.87;2.67;;;24.50;52.70;;;;;;5040835;28;20230;-70
2023/08/22 02:00:10;;;;;;;2.40;2.30;;;24.50;52.80;;;;;;5038832;28;20623;-70
2023/08/22 02:02:36;;;;;;;2.33;2.23;;;24.50;52.70;;;;;;5040017;28;20300;-70
2023/08/22 02:05:02;;;;;;;2.97;2.87;;;24.50;52.70;;;;;;5038465;28;20245;-70
2023/08/22 02:07:28;;;;;;;2.50;2.40;;;24.50;52.70;;;;;;5040632;28;20229;-70
2023/08/22 02:09:53;;;;;;;2.10;2.00;;;24.50;52.80;;;;;;5039418;28;20221;-70
2023/08/22 02:12:20;;;;;;;2.90;2.70;;;24.50;52.70;;;;;;5037901;28;21119;-70
2023/08/22 02:14:45;;;;;;;2.50;2.40;;;24.50;52.70;;;;;;5039622;28;20308;-71
2023/08/22 02:17:11;;;;;;;2.50;2.40;;;24.50;52.80;;;;;;5038601;28;20458;-69
2023/08/22 02:19:36;;;;;;;2.30;2.20;;;24.50;52.70;;;;;;5040720;28;20234;-71
2023/08/22 02:22:02;;;;;;;2.97;2.77;;;24.50;52.70;;;;;;5039171;28;20230;-70
2023/08/22 02:24:27;;;;;;;2.30;2.20;;;24.50;52.70;;;;;;5026988;28;20232;-70
2023/08/22 02:26:53;;;;;;;2.33;2.23;;;24.50;52.70;;;;;;5038497;28;20214;-70
2023/08/22 02:29:18;;;;;;;2.50;2.40;;;24.50;52.70;;;;;;5040885;28;20229;-70
2023/08/22 02:31:44;;;;;;;2.47;2.37;;;24.50;52.70;;;;;;5036482;28;20257;-70
2023/08/22 02:34:09;;;;;;;2.70;2.60;;;24.50;52.70;;;;;;5037725;28;20230;-71
2023/08/22 02:36:35;;;;;;;2.60;2.50;;;24.50;52.70;;;;;;5038261;28;20240;-70
2023/08/22 02:39:01;;;;;;;2.60;2.47;;;24.50;52.70;;;;;;5040295;28;20294;-70
2023/08/22 02:41:27;;;;;;;2.40;2.30;;;24.50;52.70;;;;;;5041895;28;20225;-71
2023/08/22 02:43:52;;;;;;;2.47;2.37;;;24.50;52.70;;;;;;5040342;28;21000;-69
2023/08/22 02:46:18;;;;;;;2.63;2.53;;;24.50;52.70;;;;;;5037743;28;20252;-69
2023/08/22 02:48:43;;;;;;;2.50;2.40;;;24.50;52.70;;;;;;5039111;28;20253;-70
2023/08/22 02:51:09;;;;;;;2.20;2.10;;;24.50;52.70;;;;;;5038072;28;20240;-70
2023/08/22 02:53:34;;;;;;;2.83;2.73;;;24.50;52.80;;;;;;5039889;28;20244;-70
2023/08/22 02:56:00;;;;;;;2.10;2.00;;;24.50;52.70;;;;;;5038143;28;20689;-69
2023/08/22 02:58:27;;;;;;;2.70;2.60;;;24.50;52.70;;;;;;5040646;28;20221;-68
2023/08/22 03:00:53;;;;;;;2.50;2.40;;;24.50;52.70;;;;;;5035088;28;20681;-69
2023/08/22 03:03:19;;;;;;;2.73;2.63;;;24.50;52.60;;;;;;5039754;28;20669;-71
2023/08/22 03:05:45;;;;;;;2.50;2.40;;;24.50;52.60;;;;;;5040839;28;20507;-69
2023/08/22 03:08:10;;;;;;;2.50;2.40;;;24.50;52.60;;;;;;5020631;28;21127;-69
2023/08/22 03:10:36;;;;;;;2.60;2.50;;;24.50;52.70;;;;;;5038887;28;20249;-69
2023/08/22 03:13:01;;;;;;;2.77;2.67;;;24.50;52.70;;;;;;5039702;28;20692;-68
2023/08/22 03:15:27;;;;;;;2.70;2.60;;;24.50;52.60;;;;;;5040950;28;20772;-70
2023/08/22 03:17:52;;;;;;;3.00;2.80;;;24.50;52.60;;;;;;5019355;28;20225;-69
2023/08/22 03:20:18;;;;;;;2.83;2.63;;;24.50;52.70;;;;;;5038575;28;20324;-69
2023/08/22 03:22:43;;;;;;;2.30;2.20;;;24.50;52.60;;;;;;5037872;28;20229;-69
2023/08/22 03:25:09;;;;;;;2.63;2.53;;;24.50;52.60;;;;;;5040059;28;20221;-73
2023/08/22 03:27:34;;;;;;;2.57;2.47;;;24.50;52.60;;;;;;5036864;28;20222;-73
2023/08/22 03:30:00;;;;;;;2.10;1.90;;;24.50;52.60;;;;;;5039141;28;20221;-73
2023/08/22 03:32:26;;;;;;;2.70;2.60;;;24.50;52.60;;;;;;5038549;28;20283;-73
2023/08/22 03:34:51;;;;;;;2.63;2.53;;;24.50;52.60;;;;;;5038128;28;20252;-73
2023/08/22 03:37:17;;;;;;;2.20;2.10;;;24.50;52.60;;;;;;5036901;28;20228;-73
2023/08/22 03:39:42;;;;;;;2.70;2.50;;;24.50;52.60;;;;;;5035730;28;20244;-73
2023/08/22 03:42:08;;;;;;;2.50;2.40;;;24.50;52.60;;;;;;5036002;28;20661;-70
2023/08/22 03:44:33;;;;;;;2.50;2.40;;;24.50;52.50;;;;;;5038196;28;20214;-73
2023/08/22 03:46:59;;;;;;;2.77;2.57;;;24.50;52.60;;;;;;5038837;28;20229;-73
2023/08/22 03:49:24;;;;;;;2.83;2.63;;;24.50;52.60;;;;;;5038776;28;20592;-73
2023/08/22 03:51:50;;;;;;;2.40;2.30;;;24.50;52.50;;;;;;5038499;28;20341;-73
2023/08/22 03:54:15;;;;;;;3.20;3.00;;;24.50;52.50;;;;;;5031304;28;21530;-70
2023/08/22 03:56:41;;;;;;;2.53;2.43;;;24.50;52.50;;;;;;5034772;28;20285;-70
2023/08/22 03:59:06;;;;;;;2.60;2.50;;;24.50;52.50;;;;;;5019368;28;20221;-68
2023/08/22 04:01:32;;;;;;;2.20;2.10;;;24.50;52.50;;;;;;5032147;28;20218;-69
2023/08/22 04:03:57;;;;;;;2.50;2.40;;;24.50;52.50;;;;;;5033588;28;20230;-71
2023/08/22 04:06:23;;;;;;;2.50;2.30;;;24.50;52.50;;;;;;5037151;28;20568;-70
2023/08/22 04:08:48;;;;;;;2.50;2.30;;;24.50;52.50;;;;;;5033379;28;20225;-68
2023/08/22 04:11:14;;;;;;;2.70;2.50;;;24.50;52.50;;;;;;5037298;28;20447;-68
2023/08/22 04:13:39;;;;;;;3.23;3.07;;;24.50;52.50;;;;;;5033260;28;20221;-68
2023/08/22 04:16:05;;;;;;;2.63;2.53;;;24.50;52.40;;;;;;5038245;28;20225;-69
2023/08/22 04:18:30;;;;;;;2.93;2.73;;;24.50;53.20;;;;;;5036674;28;20225;-70
2023/08/22 04:20:56;;;;;;;2.10;2.00;;;24.50;52.30;;;;;;5037078;28;20748;-69
2023/08/22 04:23:21;;;;;;;2.70;2.60;;;24.50;52.30;;;;;;5023181;28;20238;-69
2023/08/22 04:25:47;;;;;;;3.03;2.93;;;24.50;52.20;;;;;;5034809;28;20272;-69
2023/08/22 04:28:13;;;;;;;2.20;2.10;;;24.50;52.10;;;;;;5037071;28;20725;-70
2023/08/22 04:30:38;;;;;;;2.63;2.53;;;24.50;52.10;;;;;;5031031;28;20233;-69
2023/08/22 04:33:04;;;;;;;2.40;2.30;;;24.50;52.00;;;;;;5034974;28;20214;-70
2023/08/22 04:35:30;;;;;;;2.77;2.67;;;24.50;52.00;;;;;;5038757;28;20225;-69
2023/08/22 04:37:55;;;;;;;2.60;2.50;;;24.50;52.00;;;;;;5037867;28;20229;-70
2023/08/22 04:40:21;;;;;;;2.80;2.60;;;24.50;52.00;;;;;;5027457;28;20233;-70
2023/08/22 04:42:47;;;;;;;2.90;2.70;;;24.60;52.00;;;;;;5030776;28;20214;-70
2023/08/22 04:45:12;;;;;;;2.57;2.47;;;24.60;52.10;;;;;;5035258;28;20241;-71
2023/08/22 04:47:38;;;;;;;2.67;2.47;;;24.60;52.10;;;;;;5018806;28;20720;-70
2023/08/22 04:50:05;;;;;;;2.70;2.53;;;24.60;52.00;;;;;;5037089;28;20225;-70
2023/08/22 04:52:30;;;;;;;2.50;2.40;;;24.60;52.00;;;;;;5038996;28;20233;-70
2023/08/22 04:54:56;;;;;;;2.67;2.57;;;24.60;52.00;;;;;;5040885;28;20458;-70
2023/08/22 04:57:23;;;;;;;2.43;2.30;;;24.60;52.00;;;;;;5037807;28;20222;-70
2023/08/22 04:59:49;;;;;;;2.37;2.27;;;24.60;52.00;;;;;;5025358;28;20254;-70
2023/08/22 05:02:15;;;;;;;2.03;1.93;;;24.60;52.00;;;;;;5029092;28;20562;-69
2023/08/22 05:04:40;;;;;;;2.43;2.33;;;24.60;51.90;;;;;;5035871;28;20229;-70
2023/08/22 05:07:06;;;;;;;2.57;2.43;;;24.60;52.00;;;;;;5030717;28;20222;-68
2023/08/22 05:09:31;;;;;;;2.83;2.63;;;24.60;51.90;;;;;;5038563;28;20768;-71
2023/08/22 05:11:57;;;;;;;2.57;2.47;;;24.60;52.00;;;;;;5031765;28;20234;-68
2023/08/22 05:14:22;;;;;;;2.20;2.10;;;24.60;52.00;;;;;;5035173;28;20229;-70
2023/08/22 05:16:48;;;;;;;2.07;1.97;;;24.60;51.90;;;;;;5031424;28;20232;-70
2023/08/22 05:19:13;;;;;;;3.23;2.90;;;24.60;52.00;;;;;;5038177;28;20308;-69
2023/08/22 05:21:39;;;;;;;2.80;2.70;;;24.60;51.90;;;;;;5031295;28;20237;-69
2023/08/22 05:24:05;;;;;;;5.07;2.57;;;24.60;51.90;;;;;;5011776;28;23339;-70
2023/08/22 05:26:31;;;;;;;2.90;2.70;;;24.60;51.90;;;;;;5034691;28;20474;-70
2023/08/22 05:28:56;;;;;;;2.70;2.50;;;24.60;51.90;;;;;;5035014;28;20633;-70
2023/08/22 05:31:23;;;;;;;3.10;2.73;;;24.60;51.80;;;;;;5033087;28;20291;-70
2023/08/22 05:33:49;;;;;;;3.40;3.20;;;24.60;51.80;;;;;;5022089;28;20283;-70
2023/08/22 05:36:15;;;;;;;2.77;2.63;;;24.60;51.70;;;;;;5019201;28;20814;-70
2023/08/22 05:38:41;;;;;;;2.47;2.37;;;24.60;51.60;;;;;;5041139;28;20467;-70
2023/08/22 05:41:06;;;;;;;3.13;2.93;;;24.60;51.50;;;;;;5036992;28;20891;-70
2023/08/22 05:43:32;;;;;;;6.57;3.53;;;24.60;51.50;;;;;;5041184;28;20237;-70
2023/08/22 05:45:57;;;;;;;2.57;2.47;;;24.60;51.40;;;;;;5034658;28;20222;-70
2023/08/22 05:48:23;;;;;;;2.43;2.33;;;24.60;51.30;;;;;;5038876;28;20756;-70
2023/08/22 05:50:50;;;;;;;2.77;2.67;;;24.60;51.20;;;;;;5037118;28;20229;-70
2023/08/22 05:53:16;;;;;;;3.80;2.57;;;24.60;51.10;;;;;;5038630;28;20225;-70
2023/08/22 05:55:42;;;;;;;2.53;2.33;;;24.60;51.10;;;;;;5040467;28;20481;-70
2023/08/22 05:58:08;;;;;;;3.03;2.57;;;24.60;51.10;;;;;;5037275;28;20673;-70
2023/08/22 06:00:34;;;;;;;2.00;1.90;;;24.60;51.00;;;;;;5037230;28;20527;-70
2023/08/22 06:03:00;;;;;;;2.47;2.27;;;24.60;50.90;;;;;;5041603;28;20234;-70
2023/08/22 06:05:26;;;;;;;2.43;2.33;;;24.60;50.90;;;;;;5036654;28;20456;-70
2023/08/22 06:07:53;;;;;;;2.47;2.37;;;24.60;50.90;;;;;;5036791;28;20250;-70
2023/08/22 06:10:18;;;;;;;2.60;2.50;;;24.50;50.80;;;;;;5037982;28;20245;-70
2023/08/22 06:12:44;;;;;;;2.67;2.57;;;24.50;50.70;;;;;;5040566;28;21049;-70
2023/08/22 06:15:09;;;;;;;2.80;2.60;;;24.50;50.70;;;;;;5038901;28;20343;-70
2023/08/22 06:17:35;;;;;;;2.10;2.00;;;24.50;50.70;;;;;;5040662;28;20229;-70
2023/08/22 06:20:01;;;;;;;2.70;2.60;;;24.50;50.70;;;;;;5037167;28;20279;-70
2023/08/22 06:22:26;;;;;;;2.43;2.33;;;24.50;50.60;;;;;;5040279;28;20241;-70
2023/08/22 06:24:52;;;;;;;2.20;2.10;;;24.50;50.70;;;;;;5034101;28;20217;-70
2023/08/22 06:27:17;;;;;;;3.97;2.90;;;24.50;50.70;;;;;;5035502;28;20226;-70
2023/08/22 06:29:43;;;;;;;2.67;2.47;;;24.50;50.70;;;;;;5036434;28;20368;-71
2023/08/22 06:32:08;;;;;;;2.90;2.30;;;24.50;50.60;;;;;;5039410;28;20234;-70
2023/08/22 06:34:34;;;;;;;2.53;2.43;;;24.50;50.60;;;;;;5021907;28;20226;-71
2023/08/22 06:36:59;;;;;;;2.73;2.50;;;24.50;50.70;;;;;;5022719;28;20236;-70
2023/08/22 06:39:25;;;;;;;2.57;2.47;;;24.50;50.70;;;;;;5038886;28;20233;-71
2023/08/22 06:41:50;;;;;;;2.30;2.20;;;24.50;50.60;;;;;;5038046;28;20677;-70
2023/08/22 06:44:16;;;;;;;2.40;2.30;;;24.50;50.70;;;;;;5037168;28;20305;-70
2023/08/22 06:46:42;;;;;;;4.13;2.27;;;24.50;50.70;;;;;;5036685;28;20340;-70
2023/08/22 06:49:08;;;;;;;2.50;2.40;;;24.50;50.70;;;;;;5040780;28;20280;-70
2023/08/22 06:51:33;;;;;;;2.30;2.20;;;24.50;50.80;;;;;;5037188;28;20490;-70
2023/08/22 06:53:59;;;;;;;2.40;2.30;;;24.50;50.80;;;;;;5039905;28;20926;-70
2023/08/22 06:56:26;;;;;;;2.30;2.10;;;24.50;50.80;;;;;;5036218;28;20229;-70
2023/08/22 06:58:52;;;;;;;2.70;2.50;;;24.50;50.80;;;;;;5036691;28;20253;-70
2023/08/22 07:01:18;;;;;;;2.10;2.00;;;24.50;50.90;;;;;;5034557;28;20554;-70
2023/08/22 07:03:44;;;;;;;2.83;2.63;;;24.50;51.00;;;;;;5038554;28;20309;-70
2023/08/22 07:06:09;;;;;;;2.40;2.30;;;24.50;51.10;;;;;;5036177;28;20920;-70
2023/08/22 07:08:35;;;;;;;2.20;2.00;;;24.50;51.00;;;;;;5038889;28;20229;-70
2023/08/22 07:11:04;;;;;;;3.00;2.40;;;24.50;51.10;;;;;;5037571;28;20697;-70
2023/08/22 07:13:30;;;;;;;2.27;2.17;;;24.50;51.10;;;;;;5037924;28;20254;-70
2023/08/22 07:15:56;;;;;;;2.30;2.20;;;24.50;51.20;;;;;;5035382;28;20466;-70
2023/08/22 07:18:22;;;;;;;2.80;2.60;;;24.50;51.20;;;;;;5035876;28;20451;-70
2023/08/22 07:20:51;;;;;;;2.63;2.53;;;24.50;51.20;;;;;;5036039;28;20964;-70
2023/08/22 07:23:17;;;;;;;2.10;2.00;;;24.50;51.20;;;;;;5039964;28;20642;-70
2023/08/22 07:25:50;;;;;;;2.40;2.30;;;24.50;51.30;;;;;;5035062;28;20962;-70
2023/08/22 07:28:16;;;;;;;2.50;2.40;;;24.50;51.30;;;;;;5038989;28;20545;-70
2023/08/22 07:30:44;;;;;;;2.30;2.20;;;24.50;51.30;;;;;;5035016;28;20493;-70
2023/08/22 07:33:09;;;;;;;2.40;2.30;;;24.50;51.30;;;;;;5037556;28;20228;-70
2023/08/22 07:35:35;;;;;;;2.73;2.63;;;24.50;51.40;;;;;;5037321;28;20973;-70
2023/08/22 07:38:01;;;;;;;2.30;2.20;;;24.60;51.50;;;;;;5037633;28;20222;-70
2023/08/22 07:40:27;;;;;;;2.17;2.07;;;24.50;51.40;;;;;;5036893;28;20217;-70
2023/08/22 07:42:52;;;;;;;2.20;2.10;;;24.60;51.60;;;;;;5035682;28;20229;-70
2023/08/22 07:45:18;;;;;;;2.27;2.17;;;24.60;51.60;;;;;;5038144;28;20276;-70
2023/08/22 07:47:44;;;;;;;2.60;2.50;;;24.60;51.60;;;;;;5038150;28;20568;-70
2023/08/22 07:50:10;;;;;;;2.53;2.43;;;24.60;51.60;;;;;;5039078;28;20244;-70
2023/08/22 07:52:36;;;;;;;2.70;2.60;;;24.60;51.60;;;;;;5037943;28;20463;-71
2023/08/22 07:55:02;;;;;;;2.37;2.27;;;24.60;51.70;;;;;;5037648;28;20220;-70
2023/08/22 07:57:28;;;;;;;2.30;2.20;;;24.60;51.60;;;;;;5037135;28;20233;-70
2023/08/22 07:59:54;;;;;;;2.20;2.10;;;24.60;51.60;;;;;;5037830;28;20442;-70
2023/08/22 08:02:19;;;;;;;2.10;2.00;;;24.60;51.70;;;;;;5037942;28;20249;-71
2023/08/22 08:04:45;;;;;;;2.60;2.50;;;24.60;51.70;;;;;;5034998;28;20264;-71
2023/08/22 08:07:10;;;;;;;2.40;2.30;;;24.60;51.70;;;;;;5036492;28;20320;-71
2023/08/22 08:09:36;;;;;;;2.57;2.47;;;24.60;51.70;;;;;;5036692;28;20234;-71
2023/08/22 08:12:02;;;;;;;2.87;2.67;;;24.60;51.80;;;;;;5033930;28;20275;-71
2023/08/22 08:14:27;;;;;;;2.67;2.57;;;24.60;51.80;;;;;;5037346;28;20688;-71
2023/08/22 08:16:53;;;;;;;3.03;2.87;;;24.60;51.80;;;;;;5035750;28;20323;-72
2023/08/22 08:19:18;;;;;;;2.23;2.03;;;24.60;51.80;;;;;;5035745;28;20240;-71
2023/08/22 08:21:44;;;;;;;2.40;2.27;;;24.60;51.70;;;;;;5036042;28;20241;-71
2023/08/22 08:24:11;;;;;;;2.70;2.50;;;24.60;51.70;;;;;;5039793;28;21040;-72
2023/08/22 08:26:37;;;;;;;2.23;2.13;;;24.60;51.80;;;;;;5034786;28;20818;-71
2023/08/22 08:29:03;;;;;;;3.43;2.57;;;24.60;51.70;;;;;;5035858;28;20471;-72
2023/08/22 08:31:29;;;;;;;2.90;2.70;;;24.60;51.80;;;;;;5036845;28;20494;-72
2023/08/22 08:33:54;;;;;;;2.70;2.60;;;24.60;51.80;;;;;;5036267;28;20221;-72
2023/08/22 08:36:20;;;;;;;2.73;2.63;;;24.60;51.80;;;;;;5036689;28;20572;-71
2023/08/22 08:38:45;;;;;;;2.53;2.43;;;24.60;51.80;;;;;;5036830;28;20226;-72
2023/08/22 08:41:12;;;;;;;2.33;2.23;;;24.60;51.80;;;;;;5035667;28;20224;-72
2023/08/22 08:43:38;;;;;;;2.40;2.20;;;24.60;51.80;;;;;;5033506;28;20240;-71
2023/08/22 08:46:04;;;;;;;2.47;2.37;;;24.60;51.80;;;;;;5034002;28;21052;-71
2023/08/22 08:48:30;;;;;;;2.67;2.57;;;24.60;51.80;;;;;;5036083;28;20232;-72
2023/08/22 08:51:00;;;;;;;2.50;2.40;;;24.60;51.80;;;;;;5032543;28;20230;-72
2023/08/22 08:53:27;;;;;;;2.50;2.30;;;24.60;51.80;;;;;;5032536;28;20528;-71
2023/08/22 08:55:52;;;;;;;2.20;2.10;;;24.60;51.80;;;;;;5035027;28;20454;-72
2023/08/22 08:58:18;;;;;;;2.47;2.37;;;24.60;51.80;;;;;;5035733;28;20470;-72
2023/08/22 09:00:45;;;;;;;2.63;2.53;;;24.60;51.90;;;;;;5036441;28;20260;-71
2023/08/22 09:03:11;;;;;;;2.20;2.10;;;24.60;51.90;;;;;;5038784;28;20221;-71
2023/08/22 09:05:37;;;;;;;2.33;2.23;;;24.60;51.90;;;;;;5034402;28;20467;-71
2023/08/22 09:08:19;;;;;;;2.30;2.10;;;24.60;51.90;;;;;;5036792;28;20812;-71
2023/08/22 09:10:50;;;;;;;2.90;2.40;;;24.60;51.90;;;;;;5032422;28;20705;-71
2023/08/22 09:13:24;;;;;;;2.43;2.30;;;24.60;51.90;;;;;;5033055;28;20454;-71
2023/08/22 09:15:49;;;;;;;2.60;2.50;;;24.60;51.90;;;;;;5034714;28;20828;-71
2023/08/22 09:18:15;;;;;;;2.37;2.27;;;24.60;51.90;;;;;;5039528;28;20447;-71
2023/08/22 09:20:45;;;;;;;2.73;2.63;;;24.60;51.90;;;;;;5034568;28;20222;-71
2023/08/22 09:23:42;;;;;;;2.37;2.27;;;24.60;51.90;;;;;;5037104;28;20214;-72
2023/08/22 09:26:09;;;;;;;2.60;2.50;;;24.60;51.90;;;;;;5013388;28;21514;-71
2023/08/22 09:28:39;;;;;;;2.20;2.10;;;24.60;51.90;;;;;;5033808;28;20528;-71
2023/08/22 09:31:05;;;;;;;2.30;2.20;;;24.60;51.90;;;;;;5035788;28;21135;-71
2023/08/22 09:33:47;;;;;;;2.40;2.30;;;24.60;52.00;;;;;;5035961;28;20471;-72
2023/08/22 09:36:19;;;;;;;2.30;2.20;;;24.60;51.90;;;;;;5035280;28;20248;-71
2023/08/22 09:38:52;;;;;;;2.60;2.40;;;24.60;52.00;;;;;;5034701;28;21321;-71
2023/08/22 09:41:25;;;;;;;2.40;2.30;;;24.60;52.00;;;;;;5034972;28;20465;-71
2023/08/22 09:43:58;;;;;;;2.40;2.30;;;24.60;52.00;;;;;;5034831;28;20952;-71
2023/08/22 09:46:24;;;;;;;2.27;2.17;;;24.60;52.00;;;;;;5030396;28;20443;-71
2023/08/22 09:48:50;;;;;;;2.40;2.20;;;24.60;51.90;;;;;;5033907;28;20896;-71
2023/08/22 09:51:21;;;;;;;2.43;2.33;;;24.60;52.00;;;;;;5032941;28;20316;-71
2023/08/22 09:53:52;;;;;;;2.40;2.20;;;24.60;52.00;;;;;;5033289;28;20516;-70
2023/08/22 09:56:22;;;;;;;2.53;2.40;;;24.60;52.00;;;;;;5037408;28;20466;-70
2023/08/22 09:58:49;;;;;;;2.70;2.60;;;24.60;52.00;;;;;;5038493;28;20469;-69
2023/08/22 10:01:16;;;;;;;2.40;2.30;;;24.60;52.00;;;;;;5038302;28;20447;-70
2023/08/22 10:03:44;;;;;;;2.27;2.17;;;24.60;52.00;;;;;;5038684;28;20469;-70
2023/08/22 10:06:12;;;;;;;2.40;2.30;;;24.60;52.00;;;;;;5039655;28;20462;-70
2023/08/22 10:08:37;;;;;;;2.10;2.00;;;24.60;52.00;;;;;;5039754;28;20838;-70
2023/08/22 10:11:07;;;;;;;2.20;2.10;;;24.60;52.00;;;;;;5037155;28;20463;-70
2023/08/22 10:13:34;;;;;;;2.30;2.20;;;24.60;52.00;;;;;;5039541;28;20685;-70
2023/08/22 10:16:00;;;;;;;2.37;2.27;;;24.60;52.00;;;;;;5039503;28;20463;-70
2023/08/22 10:18:26;;;;;;;2.10;2.00;;;24.60;52.00;;;;;;5040205;28;20813;-70
2023/08/22 10:20:55;;;;;;;2.83;2.63;;;24.60;52.00;;;;;;5037090;28;20464;-70
2023/08/22 10:23:52;;;;;;;2.13;2.03;;;24.60;52.00;;;;;;5039086;28;20252;-70
2023/08/22 10:26:21;;;;;;;2.80;2.60;;;24.60;52.00;;;;;;5035650;28;20534;-71
2023/08/22 10:29:16;;;;;;;2.10;2.00;;;24.60;52.00;;;;;;5036110;28;20474;-71
2023/08/22 10:32:07;;;;;;;2.20;2.10;;;24.70;52.10;;;;;;5032431;28;20562;-71
2023/08/22 10:34:39;;;;;;;2.30;2.20;;;24.60;52.00;;;;;;4998929;28;20478;-71
2023/08/22 10:37:13;;;;;;;2.77;2.67;;;24.60;52.00;;;;;;5036649;28;20451;-71
2023/08/22 10:39:44;;;;;;;2.30;2.20;;;24.60;52.00;;;;;;5037601;28;20523;-71
2023/08/22 10:42:13;;;;;;;2.23;2.10;;;24.60;52.00;;;;;;5036671;28;20927;-71
2023/08/22 10:44:38;;;;;;;2.03;1.93;;;24.60;52.80;;;;;;5036723;28;20459;-71
2023/08/22 10:47:06;;;;;;;2.03;1.93;;;24.60;52.10;;;;;;5034298;28;21042;-72
2023/08/22 10:49:39;;;;;;;2.00;1.90;;;24.60;52.10;;;;;;5037290;28;20229;-71
2023/08/22 10:52:09;;;;;;;2.20;2.10;;;24.60;52.10;;;;;;5037903;28;22420;-71
2023/08/22 10:55:10;;;;;;;2.13;2.03;;;24.60;52.90;;;;;;5036540;28;20474;-71
2023/08/22 10:57:46;;;;;;;2.30;2.20;;;24.60;52.10;;;;;;5004464;28;20482;-71
2023/08/22 11:00:18;;;;;;;2.30;2.20;;;24.60;52.10;;;;;;5036874;28;20459;-71
2023/08/22 11:02:45;;;;;;;2.20;2.10;;;24.60;52.10;;;;;;5036443;28;20501;-71
2023/08/22 11:05:13;;;;;;;2.50;2.40;;;24.60;52.10;;;;;;5036006;28;20479;-70
2023/08/22 11:07:46;;;;;;;2.13;2.03;;;24.60;52.10;;;;;;5037378;28;20546;-70
2023/08/22 11:10:14;;;;;;;2.23;2.13;;;24.60;52.10;;;;;;5039416;28;20551;-70
2023/08/22 11:12:41;;;;;;;2.27;2.17;;;24.60;52.10;;;;;;5037178;28;20532;-70
2023/08/22 11:15:07;;;;;;;2.23;2.13;;;24.60;52.10;;;;;;5039929;28;20550;-70
2023/08/22 11:17:37;;;;;;;2.23;2.13;;;24.60;52.10;;;;;;5037707;28;21107;-70
2023/08/22 11:20:04;;;;;;;2.00;1.90;;;24.60;52.10;;;;;;5019072;28;20455;-70
2023/08/22 11:22:31;;;;;;;2.20;2.10;;;24.60;52.10;;;;;;5040840;28;20999;-70
2023/08/22 11:24:57;;;;;;;2.33;2.23;;;24.60;52.20;;;;;;5039189;28;20451;-70
2023/08/22 11:27:22;;;;;;;2.33;2.23;;;24.60;52.10;;;;;;5037660;28;20839;-70
2023/08/22 11:29:52;;;;;;;1.90;1.80;;;24.60;52.90;;;;;;5017175;28;20221;-70
2023/08/22 11:32:22;;;;;;;2.03;1.93;;;24.60;52.10;;;;;;5037314;28;20234;-70
2023/08/22 11:34:52;;;;;;;2.47;2.27;;;24.60;52.20;;;;;;5037527;28;21511;-71
2023/08/22 11:37:18;;;;;;;2.37;2.23;;;24.60;52.20;;;;;;5039152;28;20468;-70
2023/08/22 11:39:51;;;;;;;1.97;1.87;;;24.60;52.20;;;;;;5037879;28;20517;-70
2023/08/22 11:42:18;;;;;;;2.53;2.43;;;24.60;52.20;;;;;;5034427;28;20516;-70
2023/08/22 11:45:05;;;;;;;2.47;2.37;;;24.60;52.10;;;;;;5035951;28;20783;-70
2023/08/22 11:47:42;;;;;;;2.40;2.30;;;24.60;52.10;;;;;;5036919;28;20455;-70
2023/08/22 11:50:25;;;;;;;2.50;2.40;;;24.60;52.20;;;;;;5037022;28;20458;-70
2023/08/22 11:52:55;;;;;;;2.30;2.20;;;24.60;52.20;;;;;;5036074;28;20474;-70
2023/08/22 11:55:24;;;;;;;2.50;2.40;;;24.60;52.20;;;;;;5036182;28;20497;-70
2023/08/22 11:57:50;;;;;;;1.90;1.80;;;24.60;52.20;;;;;;5036954;28;20459;-70
2023/08/22 12:00:16;;;;;;;2.10;2.00;;;24.60;52.20;;;;;;5037139;28;20466;-70
2023/08/22 12:02:48;;;;;;;2.10;2.00;;;24.60;52.20;;;;;;5036566;28;20541;-70
2023/08/22 12:05:30;;;;;;;1.93;1.83;;;24.60;52.20;;;;;;5037434;28;20578;-70
2023/08/22 12:08:20;;;;;;;1.90;1.80;;;24.60;52.20;;;;;;5032911;28;20459;-70
2023/08/22 12:10:48;;;;;;;2.23;2.13;;;24.60;52.20;;;;;;5033167;28;20961;-70
2023/08/22 12:13:22;;;;;;;2.10;2.00;;;24.60;52.20;;;;;;5037606;28;20522;-70
2023/08/22 12:15:48;;;;;;;2.50;2.30;;;24.60;52.20;;;;;;5017598;28;20451;-70
2023/08/22 12:18:14;;;;;;;2.13;2.03;;;24.60;52.20;;;;;;5034426;28;20846;-70
2023/08/22 12:20:42;;;;;;;1.90;1.80;;;24.60;52.20;;;;;;5034509;28;20459;-70
2023/08/22 12:23:09;;;;;;;2.23;2.13;;;24.60;52.20;;;;;;5038180;28;20870;-69
2023/08/22 12:25:40;;;;;;;2.50;2.40;;;24.60;52.20;;;;;;5034106;28;20451;-70
2023/08/22 12:28:06;;;;;;;2.10;2.00;;;24.60;52.20;;;;;;5033123;28;20877;-70
2023/08/22 12:30:33;;;;;;;2.40;2.23;;;24.60;52.20;;;;;;5032070;28;20474;-70
2023/08/22 12:33:00;;;;;;;2.30;2.20;;;24.60;52.20;;;;;;5038488;28;20962;-73
2023/08/22 12:35:26;;;;;;;2.00;1.90;;;24.60;52.30;;;;;;5034276;28;20453;-70
2023/08/22 12:37:52;;;;;;;2.00;1.90;;;24.60;52.20;;;;;;5027966;28;20985;-70
2023/08/22 12:40:17;;;;;;;2.00;1.90;;;24.60;52.20;;;;;;5033703;28;20454;-70
2023/08/22 12:42:45;;;;;;;2.60;2.43;;;24.60;52.20;;;;;;5033442;28;20222;-70
2023/08/22 12:45:10;;;;;;;2.30;2.20;;;24.60;52.20;;;;;;5031957;28;20225;-70
2023/08/22 12:47:37;;;;;;;2.10;1.90;;;24.60;52.20;;;;;;5033714;28;20965;-70
2023/08/22 12:50:03;;;;;;;2.17;2.07;;;24.60;52.20;;;;;;5036001;28;20228;-70